createdAt,value
2022-07-28T00:01:22.171Z,99003.02
2022-07-28T00:03:50.317Z,99005.68
2022-07-28T00:06:19.069Z,99007.98
2022-07-28T00:08:47.042Z,99010.61
2022-07-28T00:11:16.951Z,99009.88
2022-07-28T00:13:46.737Z,99011.55
2022-07-28T00:16:15.315Z,99008.30
2022-07-28T00:18:48.239Z,99007.77
2022-07-28T00:21:18.366Z,99008.70
2022-07-28T00:23:48.336Z,99006.45
2022-07-28T00:26:18.228Z,99007.29
2022-07-28T00:28:48.148Z,99002.53
2022-07-28T00:31:17.991Z,99006.74
2022-07-28T00:33:48.534Z,99000.09
2022-07-28T00:36:19.140Z,98997.70
2022-07-28T00:38:53.294Z,98998.67
2022-07-28T00:41:24.019Z,98999.42
2022-07-28T00:43:54.766Z,98998.77
2022-07-28T00:46:25.866Z,98992.39
2022-07-28T00:48:59.625Z,98985.56
2022-07-28T00:51:30.879Z,98988.37
2022-07-28T00:54:00.906Z,98987.45
2022-07-28T00:56:31.659Z,98989.13
2022-07-28T00:59:02.227Z,98994.89
2022-07-28T01:01:32.983Z,98993.55
2022-07-28T01:04:04.698Z,98994.21
2022-07-28T01:06:47.358Z,98998.02
2022-07-28T01:09:49.260Z,98999.63
2022-07-28T01:12:36.936Z,98998.08
2022-07-28T01:15:26.804Z,98996.06
2022-07-28T01:18:08.994Z,99001.60
2022-07-28T01:20:50.094Z,99008.77
2022-07-28T01:23:33.132Z,99008.51
2022-07-28T01:26:58.524Z,99013.05
2022-07-28T01:29:53.630Z,99026.06
2022-07-28T01:32:45.113Z,99029.42
2022-07-28T01:35:28.924Z,99033.40
2022-07-28T01:38:05.123Z,99034.41
2022-07-28T01:40:38.253Z,99038.66
2022-07-28T01:43:12.463Z,99039.05
2022-07-28T01:45:44.060Z,99042.26
2022-07-28T01:48:15.479Z,99042.27
2022-07-28T01:50:48.303Z,99040.46
2022-07-28T01:53:20.475Z,99038.55
2022-07-28T01:55:53.117Z,99045.33
2022-07-28T01:58:26.750Z,99045.80
2022-07-28T02:00:58.819Z,99049.19
2022-07-28T02:03:32.789Z,99054.54
2022-07-28T02:06:06.361Z,99057.19
2022-07-28T02:08:39.240Z,99053.26
2022-07-28T02:11:26.603Z,99050.74
2022-07-28T02:13:59.029Z,99060.40
2022-07-28T02:16:30.322Z,99058.45
2022-07-28T02:19:01.940Z,99059.48
2022-07-28T02:21:36.319Z,99054.14
2022-07-28T02:24:09.322Z,99052.59
2022-07-28T02:26:42.466Z,99055.42
2022-07-28T02:29:33.646Z,99061.23
2022-07-28T02:32:17.146Z,99067.48
2022-07-28T02:35:17.986Z,99070.96
2022-07-28T02:37:53.917Z,99063.46
2022-07-28T02:40:26.509Z,99067.70
2022-07-28T02:42:58.262Z,99070.34
2022-07-28T02:45:31.733Z,99072.19
2022-07-28T02:48:07.355Z,99077.98
2022-07-28T02:50:37.546Z,99078.08
2022-07-28T02:53:15.447Z,99077.16
2022-07-28T02:55:50.577Z,99074.34
2022-07-28T02:58:23.820Z,99075.85
2022-07-28T03:00:55.864Z,99077.35
2022-07-28T03:03:27.785Z,99085.45
2022-07-28T03:05:58.642Z,99085.39
2022-07-28T03:08:29.469Z,99087.23
2022-07-28T03:11:13.991Z,99090.17
2022-07-28T03:13:44.782Z,99100.80
2022-07-28T03:16:15.511Z,99105.13
2022-07-28T03:18:43.566Z,99115.50
2022-07-28T03:21:13.698Z,99112.41
2022-07-28T03:23:47.975Z,99114.49
2022-07-28T03:26:23.577Z,99111.42
2022-07-28T03:28:56.537Z,99114.77
2022-07-28T03:31:28.909Z,99117.46
2022-07-28T03:33:58.088Z,99120.73
2022-07-28T03:36:41.816Z,99123.48
2022-07-28T03:39:12.712Z,99118.26
2022-07-28T03:41:45.474Z,99118.85
2022-07-28T03:44:27.667Z,99119.17
2022-07-28T03:46:59.340Z,99119.54
2022-07-28T03:49:28.646Z,99115.64
2022-07-28T03:51:56.653Z,99118.56
2022-07-28T03:54:27.831Z,99122.49
2022-07-28T03:56:55.943Z,99128.06
2022-07-28T03:59:26.200Z,99125.77
2022-07-28T04:01:58.013Z,99126.69
2022-07-28T04:04:26.506Z,99131.14
2022-07-28T04:06:55.428Z,99129.50
2022-07-28T04:09:28.128Z,99134.36
2022-07-28T04:11:56.081Z,99136.02
2022-07-28T04:14:26.012Z,99137.27
2022-07-28T04:16:54.307Z,99140.70
2022-07-28T04:19:25.190Z,99142.55
2022-07-28T04:21:53.296Z,99135.39
2022-07-28T04:24:23.209Z,99132.48
2022-07-28T04:26:50.969Z,99130.21
2022-07-28T04:29:23.455Z,99135.98
2022-07-28T04:31:58.178Z,99138.73
2022-07-28T04:34:26.280Z,99140.80
2022-07-28T04:36:55.643Z,99139.21
2022-07-28T04:39:26.383Z,99141.25
2022-07-28T04:41:54.543Z,99145.29
2022-07-28T04:44:22.226Z,99149.27
2022-07-28T04:46:50.735Z,99153.21
2022-07-28T04:49:18.571Z,99156.23
2022-07-28T04:51:50.794Z,99159.31
2022-07-28T04:54:26.341Z,99158.52
2022-07-28T04:57:00.493Z,99159.46
2022-07-28T04:59:38.700Z,99155.25
2022-07-28T05:02:10.050Z,99157.95
2022-07-28T05:04:39.129Z,99155.77
2022-07-28T05:07:07.848Z,99159.31
2022-07-28T05:09:43.354Z,99151.86
2022-07-28T05:12:13.391Z,99155.45
2022-07-28T05:14:43.336Z,99158.56
2022-07-28T05:17:11.093Z,99160.52
2022-07-28T05:19:38.907Z,99164.70
2022-07-28T05:22:06.663Z,99165.27
2022-07-28T05:24:34.383Z,99167.17
2022-07-28T05:27:02.102Z,99169.04
2022-07-28T05:29:37.625Z,99165.15
2022-07-28T05:32:18.361Z,99164.59
2022-07-28T05:34:47.587Z,99161.51
2022-07-28T05:37:17.566Z,99167.38
2022-07-28T05:39:45.573Z,99171.34
2022-07-28T05:42:14.000Z,99176.06
2022-07-28T05:44:45.133Z,99176.57
2022-07-28T05:47:12.894Z,99181.17
2022-07-28T05:49:45.904Z,99182.95
2022-07-28T05:52:13.758Z,99185.75
2022-07-28T05:54:41.520Z,99189.05
2022-07-28T05:57:09.333Z,99191.77
2022-07-28T05:59:43.310Z,99196.65
2022-07-28T06:02:11.739Z,99199.31
2022-07-28T06:04:39.483Z,99202.13
2022-07-28T06:07:07.305Z,99206.89
2022-07-28T06:09:35.078Z,99213.70
2022-07-28T06:12:02.845Z,99212.85
2022-07-28T06:14:30.592Z,99218.84
2022-07-28T06:16:58.457Z,99218.36
2022-07-28T06:19:26.329Z,99223.02
2022-07-28T06:21:54.086Z,99226.69
2022-07-28T06:24:21.964Z,99227.19
2022-07-28T06:26:49.823Z,99224.10
2022-07-28T06:29:19.020Z,99228.45
2022-07-28T06:31:46.964Z,99230.13
2022-07-28T06:34:15.118Z,99228.25
2022-07-28T06:36:43.234Z,99223.70
2022-07-28T06:39:11.099Z,99224.15
2022-07-28T06:41:44.469Z,99222.66
2022-07-28T06:44:12.527Z,99227.44
2022-07-28T06:46:40.593Z,99226.35
2022-07-28T06:49:08.802Z,99228.27
2022-07-28T06:51:38.328Z,99232.64
2022-07-28T06:54:11.017Z,99241.52
2022-07-28T06:56:39.280Z,99244.13
2022-07-28T06:59:07.239Z,99246.48
2022-07-28T07:01:35.063Z,99247.63
2022-07-28T07:04:02.896Z,99249.17
2022-07-28T07:06:30.664Z,99247.98
2022-07-28T07:08:58.415Z,99250.64
2022-07-28T07:11:27.006Z,99250.48
2022-07-28T07:13:55.269Z,99252.83
2022-07-28T07:16:23.093Z,99250.19
2022-07-28T07:18:53.171Z,99253.45
2022-07-28T07:21:20.901Z,99252.38
2022-07-28T07:23:50.432Z,99252.48
2022-07-28T07:26:18.138Z,99256.21
2022-07-28T07:28:45.933Z,99256.18
2022-07-28T07:31:14.151Z,99259.95
2022-07-28T07:33:41.980Z,99269.89
2022-07-28T07:36:09.903Z,99274.90
2022-07-28T07:38:39.548Z,99281.55
2022-07-28T07:41:08.335Z,99279.74
2022-07-28T07:43:36.040Z,99276.58
2022-07-28T07:46:04.124Z,99279.46
2022-07-28T07:48:31.928Z,99279.18
2022-07-28T07:50:59.807Z,99275.55
2022-07-28T07:53:27.870Z,99273.02
2022-07-28T07:55:56.354Z,99273.94
2022-07-28T07:58:24.259Z,99273.98
2022-07-28T08:00:53.386Z,99276.45
2022-07-28T08:03:22.404Z,99279.14
2022-07-28T08:05:51.780Z,99278.59
2022-07-28T08:08:19.578Z,99280.36
2022-07-28T08:10:51.268Z,99284.42
2022-07-28T08:13:20.631Z,99283.13
2022-07-28T08:15:48.962Z,99287.40
2022-07-28T08:18:17.184Z,99289.80
2022-07-28T08:20:44.945Z,99295.91
2022-07-28T08:23:12.700Z,99298.73
2022-07-28T08:25:40.608Z,99294.16
2022-07-28T08:28:08.402Z,99291.77
2022-07-28T08:30:36.191Z,99289.29
2022-07-28T08:33:04.176Z,99287.79
2022-07-28T08:35:34.093Z,99283.06
2022-07-28T08:38:04.400Z,99282.07
2022-07-28T08:40:32.973Z,99282.48
2022-07-28T08:43:06.769Z,99282.13
2022-07-28T08:45:37.278Z,99280.91
2022-07-28T08:48:08.811Z,99276.95
2022-07-28T08:50:42.308Z,99277.33
2022-07-28T08:53:10.987Z,99278.91
2022-07-28T08:55:39.768Z,99277.85
2022-07-28T08:58:07.752Z,99280.00
2022-07-28T09:00:35.998Z,99280.05
2022-07-28T09:03:04.909Z,99276.76
2022-07-28T09:05:33.261Z,99276.48
2022-07-28T09:08:02.195Z,99277.08
2022-07-28T09:10:30.152Z,99283.35
2022-07-28T09:12:58.088Z,99283.34
2022-07-28T09:15:26.366Z,99282.33
2022-07-28T09:17:54.128Z,99279.06
2022-07-28T09:20:23.787Z,99279.20
2022-07-28T09:22:57.951Z,99282.83
2022-07-28T09:25:27.122Z,99282.35
2022-07-28T09:27:55.528Z,99279.60
2022-07-28T09:30:31.844Z,99281.25
2022-07-28T09:33:42.757Z,99280.41
2022-07-28T09:36:04.653Z,99277.43
2022-07-28T09:38:41.855Z,99278.02
2022-07-28T09:41:09.760Z,99277.64
2022-07-28T09:43:43.565Z,99276.10
2022-07-28T09:46:17.079Z,99272.65
2022-07-28T09:48:49.107Z,99279.71
2022-07-28T09:51:31.628Z,99277.08
2022-07-28T09:54:08.796Z,99277.75
2022-07-28T09:56:38.500Z,99280.80
2022-07-28T09:59:08.641Z,99284.29
2022-07-28T10:01:53.809Z,99275.92
2022-07-28T10:04:40.582Z,99278.15
2022-07-28T10:07:11.340Z,99275.77
2022-07-28T10:09:39.933Z,99271.10
2022-07-28T10:12:22.605Z,99274.30
2022-07-28T10:14:53.174Z,99272.78
2022-07-28T10:17:33.395Z,99276.34
2022-07-28T10:20:04.881Z,99272.84
2022-07-28T10:22:38.297Z,99265.92
2022-07-28T10:25:10.659Z,99266.84
2022-07-28T10:27:41.671Z,99265.80
2022-07-28T10:30:10.932Z,99262.74
2022-07-28T10:32:42.270Z,99264.13
2022-07-28T10:35:15.418Z,99263.45
2022-07-28T10:38:12.811Z,99260.05
2022-07-28T10:40:46.832Z,99259.71
2022-07-28T10:43:15.785Z,99258.83
2022-07-28T10:46:04.453Z,99254.82
2022-07-28T10:48:32.102Z,99252.84
2022-07-28T10:51:01.839Z,99247.76
2022-07-28T10:53:51.499Z,99245.15
2022-07-28T10:56:29.007Z,99245.48
2022-07-28T10:59:25.412Z,99248.66
2022-07-28T11:01:57.475Z,99241.09
2022-07-28T11:04:45.250Z,99243.02
2022-07-28T11:07:17.086Z,99238.69
2022-07-28T11:09:47.722Z,99238.94
2022-07-28T11:12:16.636Z,99237.59
2022-07-28T11:14:45.170Z,99234.80
2022-07-28T11:17:15.133Z,99235.39
2022-07-28T11:22:34.931Z,99229.50
2022-07-28T11:25:20.845Z,99230.18
2022-07-28T11:27:51.472Z,99222.16
2022-07-28T11:30:26.104Z,99229.46
2022-07-28T11:32:57.991Z,99227.52
2022-07-28T11:35:46.197Z,99227.35
2022-07-28T11:38:14.857Z,99224.33
2022-07-28T11:40:45.451Z,99227.85
2022-07-28T11:43:36.802Z,99231.67
2022-07-28T11:46:09.968Z,99229.73
2022-07-28T11:48:45.201Z,99231.55
2022-07-28T11:51:14.404Z,99229.95
2022-07-28T11:53:51.240Z,99228.69
2022-07-28T11:56:26.007Z,99226.09
2022-07-28T11:58:58.938Z,99216.45
2022-07-28T12:01:27.363Z,99217.52
2022-07-28T12:04:01.293Z,99216.50
2022-07-28T12:06:37.431Z,99214.59
2022-07-28T12:09:07.445Z,99209.83
2022-07-28T12:11:41.260Z,99208.91
2022-07-28T12:14:10.562Z,99211.73
2022-07-28T12:16:41.227Z,99210.48
2022-07-28T12:19:10.385Z,99210.90
2022-07-28T12:21:52.784Z,99211.79
2022-07-28T12:24:31.923Z,99215.27
2022-07-28T12:27:15.269Z,99209.90
2022-07-28T12:29:56.495Z,99210.48
2022-07-28T12:32:35.344Z,99208.34
2022-07-28T12:35:03.464Z,99206.20
2022-07-28T12:37:31.609Z,99204.13
2022-07-28T12:40:01.226Z,99206.00
2022-07-28T12:42:32.431Z,99205.67
2022-07-28T12:45:07.584Z,99202.47
2022-07-28T12:47:35.452Z,99201.48
2022-07-28T12:50:18.348Z,99202.95
2022-07-28T12:53:08.145Z,99198.38
2022-07-28T12:55:37.907Z,99200.75
2022-07-28T12:58:06.562Z,99196.93
2022-07-28T13:00:36.622Z,99201.86
2022-07-28T13:03:28.491Z,99199.99
2022-07-28T13:06:03.618Z,99193.55
2022-07-28T13:08:47.514Z,99195.10
2022-07-28T13:11:42.794Z,99198.15
2022-07-28T13:14:04.702Z,99198.56
2022-07-28T13:16:34.658Z,99192.21
2022-07-28T13:19:05.148Z,99188.98
2022-07-28T13:21:58.767Z,99186.68
2022-07-28T13:24:30.368Z,99184.20
2022-07-28T13:26:59.717Z,99182.55
2022-07-28T13:29:28.360Z,99180.23
2022-07-28T13:31:56.338Z,99179.14
2022-07-28T13:34:24.296Z,99179.50
2022-07-28T13:36:52.754Z,99174.91
2022-07-28T13:39:20.740Z,99178.54
2022-07-28T13:41:58.603Z,99177.92
2022-07-28T13:44:28.251Z,99175.80
2022-07-28T13:46:56.737Z,99178.48
2022-07-28T13:49:28.835Z,99176.66
2022-07-28T13:51:57.321Z,99176.23
2022-07-28T13:54:25.652Z,99176.83
2022-07-28T13:56:53.723Z,99175.20
2022-07-28T13:59:21.596Z,99172.84
2022-07-28T14:01:50.398Z,99171.73
2022-07-28T14:04:21.527Z,99173.80
2022-07-28T14:06:50.410Z,99173.69
2022-07-28T14:09:20.962Z,99170.05
2022-07-28T14:11:53.488Z,99169.11
2022-07-28T14:14:25.278Z,99162.58
2022-07-28T14:16:54.352Z,99159.98
2022-07-28T14:19:39.613Z,99154.59
2022-07-28T14:22:13.286Z,99158.36
2022-07-28T14:24:42.959Z,99161.46
2022-07-28T14:27:13.691Z,99155.22
2022-07-28T14:29:43.598Z,99154.40
2022-07-28T14:32:11.716Z,99155.90
2022-07-28T14:34:40.051Z,99155.34
2022-07-28T14:37:08.825Z,99152.50
2022-07-28T14:39:38.442Z,99152.79
2022-07-28T14:42:07.060Z,99156.33
2022-07-28T14:44:35.441Z,99155.45
2022-07-28T14:47:03.777Z,99156.96
2022-07-28T14:49:31.749Z,99156.46
2022-07-28T14:51:59.826Z,99157.23
2022-07-28T14:54:28.061Z,99154.86
2022-07-28T14:56:56.507Z,99153.73
2022-07-28T14:59:24.637Z,99153.19
2022-07-28T15:01:53.151Z,99151.52
2022-07-28T15:04:21.506Z,99151.16
2022-07-28T15:06:49.335Z,99147.15
2022-07-28T15:09:17.373Z,99145.23
2022-07-28T15:11:47.452Z,99145.27
2022-07-28T15:14:15.860Z,99143.02
2022-07-28T15:16:47.493Z,99143.34
2022-07-28T15:19:15.874Z,99138.15
2022-07-28T15:21:47.556Z,99136.13
2022-07-28T15:24:16.602Z,99140.11
2022-07-28T15:26:45.150Z,99142.30
2022-07-28T15:29:13.071Z,99143.95
2022-07-28T15:31:45.373Z,99143.30
2022-07-28T15:34:15.319Z,99143.73
2022-07-28T15:36:43.904Z,99141.89
2022-07-28T15:39:15.082Z,99142.21
2022-07-28T15:41:45.821Z,99141.23
2022-07-28T15:44:16.394Z,99138.06
2022-07-28T15:46:49.477Z,99141.16
2022-07-28T15:49:17.766Z,99147.84
2022-07-28T15:51:46.174Z,99149.18
2022-07-28T15:54:14.806Z,99149.27
2022-07-28T15:56:43.255Z,99151.06
2022-07-28T15:59:11.351Z,99149.22
2022-07-28T16:01:45.201Z,99147.09
2022-07-28T16:04:14.029Z,99146.81
2022-07-28T16:07:01.547Z,99146.52
2022-07-28T16:09:45.669Z,99149.69
2022-07-28T16:12:15.181Z,99153.34
2022-07-28T16:14:43.679Z,99157.44
2022-07-28T16:17:12.953Z,99154.93
2022-07-28T16:19:49.919Z,99154.34
2022-07-28T16:22:19.772Z,99151.21
2022-07-28T16:24:49.572Z,99155.90
2022-07-28T16:27:17.790Z,99161.21
2022-07-28T16:29:45.848Z,99163.30
2022-07-28T16:32:14.003Z,99162.84
2022-07-28T16:34:42.079Z,99162.84
2022-07-28T16:37:10.282Z,99164.97
2022-07-28T16:39:38.591Z,99166.13
2022-07-28T16:42:07.207Z,99160.17
2022-07-28T16:44:38.162Z,99159.72
2022-07-28T16:47:06.219Z,99165.05
2022-07-28T16:49:34.269Z,99164.16
2022-07-28T16:52:02.563Z,99166.08
2022-07-28T16:54:30.838Z,99166.70
2022-07-28T16:57:00.137Z,99164.52
2022-07-28T16:59:37.605Z,99168.16
2022-07-28T17:02:14.717Z,99166.09
2022-07-28T17:04:42.485Z,99169.52
2022-07-28T17:07:10.891Z,99171.33
2022-07-28T17:09:39.330Z,99174.58
2022-07-28T17:12:08.346Z,99171.10
2022-07-28T17:14:36.570Z,99175.57
2022-07-28T17:17:04.674Z,99178.83
2022-07-28T17:19:32.934Z,99181.48
2022-07-28T17:22:05.167Z,99180.97
2022-07-28T17:24:34.174Z,99181.36
2022-07-28T17:27:36.585Z,99185.63
2022-07-28T17:29:49.989Z,99182.52
2022-07-28T17:32:18.101Z,99180.06
2022-07-28T17:34:46.249Z,99179.83
2022-07-28T17:37:14.060Z,99181.77
2022-07-28T17:39:41.993Z,99179.65
2022-07-28T17:42:09.771Z,99175.91
2022-07-28T17:44:37.738Z,99174.67
2022-07-28T17:47:06.817Z,99178.63
2022-07-28T17:49:37.211Z,99178.14
2022-07-28T17:52:08.624Z,99181.31
2022-07-28T17:54:55.444Z,99183.29
2022-07-28T17:57:27.910Z,99181.95
2022-07-28T17:59:58.476Z,99184.32
2022-07-28T18:02:26.299Z,99182.64
2022-07-28T18:04:54.443Z,99183.02
2022-07-28T18:07:22.341Z,99185.30
2022-07-28T18:09:50.277Z,99186.66
2022-07-28T18:12:18.349Z,99186.73
2022-07-28T18:14:46.503Z,99187.81
2022-07-28T18:17:14.496Z,99190.68
2022-07-28T18:19:45.506Z,99189.73
2022-07-28T18:22:13.801Z,99190.65
2022-07-28T18:24:41.475Z,99191.73
2022-07-28T18:27:10.157Z,99197.69
2022-07-28T18:29:38.972Z,99198.08
2022-07-28T18:32:10.013Z,99197.02
2022-07-28T18:34:40.609Z,99205.42
2022-07-28T18:37:08.418Z,99206.12
2022-07-28T18:39:36.346Z,99213.89
2022-07-28T18:42:04.622Z,99212.81
2022-07-28T18:44:33.350Z,99216.96
2022-07-28T18:47:02.064Z,99213.59
2022-07-28T18:49:37.607Z,99218.37
2022-07-28T18:52:07.160Z,99217.59
2022-07-28T18:54:34.913Z,99219.64
2022-07-28T18:57:02.778Z,99220.80
2022-07-28T18:59:30.573Z,99228.27
2022-07-28T19:01:58.982Z,99224.98
2022-07-28T19:04:27.732Z,99227.77
2022-07-28T19:06:56.349Z,99227.23
2022-07-28T19:09:24.175Z,99228.89
2022-07-28T19:11:54.075Z,99228.40
2022-07-28T19:14:22.025Z,99231.67
2022-07-28T19:16:49.784Z,99234.05
2022-07-28T19:19:18.076Z,99235.30
2022-07-28T19:21:48.754Z,99236.17
2022-07-28T19:24:18.437Z,99236.98
2022-07-28T19:26:50.225Z,99238.48
2022-07-28T19:29:18.138Z,99236.25
2022-07-28T19:31:46.862Z,99236.06
2022-07-28T19:34:14.966Z,99239.45
2022-07-28T19:36:42.800Z,99239.41
2022-07-28T19:39:12.786Z,99239.83
2022-07-28T19:41:41.671Z,99237.88
2022-07-28T19:44:10.593Z,99241.51
2022-07-28T19:46:39.774Z,99243.31
2022-07-28T19:49:09.400Z,99249.45
2022-07-28T19:51:38.281Z,99250.83
2022-07-28T19:54:06.567Z,99252.00
2022-07-28T19:56:34.809Z,99254.11
2022-07-28T19:59:03.501Z,99253.75
2022-07-28T20:01:32.471Z,99252.09
2022-07-28T20:04:05.234Z,99256.84
2022-07-28T20:06:34.928Z,99259.06
2022-07-28T20:09:04.695Z,99259.51
2022-07-28T20:11:33.690Z,99261.03
2022-07-28T20:14:02.048Z,99257.93
2022-07-28T20:16:30.546Z,99256.67
2022-07-28T20:19:00.014Z,99256.09
2022-07-28T20:21:27.836Z,99253.91
2022-07-28T20:23:58.233Z,99258.11
2022-07-28T20:26:28.153Z,99258.80
2022-07-28T20:28:58.950Z,99261.83
2022-07-28T20:31:27.952Z,99262.41
2022-07-28T20:33:57.057Z,99260.66
2022-07-28T20:36:29.633Z,99264.20
2022-07-28T20:38:57.953Z,99263.52
2022-07-28T20:41:26.518Z,99265.70
2022-07-28T20:44:27.460Z,99268.23
2022-07-28T20:46:45.449Z,99264.46
2022-07-28T20:49:13.309Z,99268.89
2022-07-28T20:51:51.023Z,99269.60
2022-07-28T20:54:20.855Z,99273.17
2022-07-28T20:56:49.130Z,99273.11
2022-07-28T20:59:16.915Z,99270.00
2022-07-28T21:01:45.200Z,99272.77
2022-07-28T21:04:13.538Z,99268.17
2022-07-28T21:06:51.489Z,99275.66
2022-07-28T21:09:21.167Z,99279.20
2022-07-28T21:11:50.560Z,99275.50
2022-07-28T21:14:19.402Z,99275.39
2022-07-28T21:16:48.002Z,99273.11
2022-07-28T21:19:16.212Z,99275.41
2022-07-28T21:21:44.225Z,99277.98
2022-07-28T21:24:12.557Z,99277.71
2022-07-28T21:26:42.953Z,99278.52
2022-07-28T21:32:02.283Z,99282.55
2022-07-28T21:34:35.360Z,99291.61
2022-07-28T21:37:05.237Z,99287.59
2022-07-28T21:39:35.890Z,99290.15
2022-07-28T21:42:07.748Z,99291.49
2022-07-28T21:44:39.417Z,99291.83
2022-07-28T21:47:07.214Z,99296.14
2022-07-28T21:49:36.159Z,99298.45
2022-07-28T21:52:04.351Z,99299.29
2022-07-28T21:54:33.472Z,99297.73
2022-07-28T21:57:03.482Z,99298.11
2022-07-28T21:59:45.176Z,99295.58
2022-07-28T22:02:16.772Z,99300.09
2022-07-28T22:04:44.570Z,99299.63
2022-07-28T22:07:14.613Z,99299.28
2022-07-28T22:09:43.399Z,99307.46
2022-07-28T22:12:11.137Z,99306.02
2022-07-28T22:14:39.104Z,99306.89
2022-07-28T22:17:07.992Z,99302.23
2022-07-28T22:19:38.518Z,99303.80
2022-07-28T22:22:07.408Z,99301.36
2022-07-28T22:24:35.106Z,99305.38
2022-07-28T22:27:03.114Z,99308.84
2022-07-28T22:29:32.033Z,99310.48
2022-07-28T22:32:02.233Z,99312.35
2022-07-28T22:34:30.434Z,99315.09
2022-07-28T22:37:00.412Z,99314.30
2022-07-28T22:39:29.338Z,99315.45
2022-07-28T22:41:57.713Z,99322.05
2022-07-28T22:44:25.663Z,99323.33
2022-07-28T22:46:53.399Z,99323.41
2022-07-28T22:49:22.204Z,99324.94
2022-07-28T22:51:50.817Z,99325.77
2022-07-28T22:54:19.277Z,99326.14
2022-07-28T22:56:47.472Z,99327.14
2022-07-28T22:59:17.689Z,99329.86
2022-07-28T23:01:46.102Z,99328.30
2022-07-28T23:04:15.600Z,99329.42
2022-07-28T23:06:44.391Z,99324.98
2022-07-28T23:09:12.934Z,99325.63
2022-07-28T23:11:41.015Z,99324.65
2022-07-28T23:14:24.071Z,99322.70
2022-07-28T23:16:52.473Z,99320.48
2022-07-28T23:19:20.587Z,99318.72
2022-07-28T23:21:48.867Z,99322.29
2022-07-28T23:24:17.246Z,99324.64
2022-07-28T23:26:46.319Z,99324.73
2022-07-28T23:29:14.511Z,99322.42
2022-07-28T23:31:43.508Z,99321.98
2022-07-28T23:34:11.838Z,99321.69
2022-07-28T23:36:39.881Z,99316.06
2022-07-28T23:39:08.025Z,99315.07
2022-07-28T23:41:36.505Z,99311.21
2022-07-28T23:44:04.682Z,99311.92
2022-07-28T23:46:32.582Z,99312.36
2022-07-28T23:49:03.942Z,99313.41
2022-07-28T23:51:47.766Z,99314.66
2022-07-28T23:54:18.227Z,99315.23
2022-07-28T23:56:46.693Z,99317.77
2022-07-28T23:59:15.006Z,99322.02
